Terminal Aerodrome Forecast
Issued by NWS

Home | Current Version | Previous Version | Text Only | Print | Product List | Glossary On
Versions: 1 2 3 4 5 6 7 8 9 10 11 12 13 14 15 16 17 18 19
979
FTUS42 KTAE 080533
TAFABY
TAF
KABY 080533Z 0806/0906 30004KT P6SM OVC022
      TEMPO 0810/0814 OVC016
     FM081400 33010G18KT P6SM FEW030 SCT100
     FM082300 34007KT P6SM SCT050 BKN100=

USA.gov is the U.S. government's official web portal to all federal, state and local government web resources and services.